Terminal Aerodrome Forecast
Issued by NWS Corpus Christi, TX

Home | Current Version | Previous Version | Text Only | Print | Product List | Glossary On
Versions: 1 2 3 4 5 6 7 8 9 10 11 12 13
526
FTUS44 KCRP 232335
TAFVCT
TAF
KVCT 232335Z 2400/2424 16015G22KT P6SM SCT050
     FM240100 15008KT P6SM SKC
     FM240800 VRB03KT P6SM SCT015
     FM241600 19010KT P6SM SCT035
     FM241900 16012G20KT P6SM SCT050=

USA.gov is the U.S. government's official web portal to all federal, state and local government web resources and services.